createdAt,value
2018-12-26T00:00:01.843Z,20.47
2018-12-26T00:02:31.113Z,23.50
2018-12-26T00:05:00.277Z,22.57
2018-12-26T00:07:29.425Z,21.80
2018-12-26T00:09:58.635Z,21.40
2018-12-26T00:12:27.854Z,21.93
2018-12-26T00:14:57.021Z,22.27
2018-12-26T00:17:26.227Z,24.93
2018-12-26T00:19:55.590Z,24.30
2018-12-26T00:22:24.831Z,23.20
2018-12-26T00:24:56.582Z,18.60
2018-12-26T00:27:25.886Z,19.83
2018-12-26T00:29:55.076Z,21.23
2018-12-26T00:32:24.303Z,20.07
2018-12-26T00:34:53.604Z,25.77
2018-12-26T00:37:22.774Z,20.03
2018-12-26T00:39:52.020Z,21.70
2018-12-26T00:42:21.251Z,22.50
2018-12-26T00:44:50.390Z,23.17
2018-12-26T00:47:19.545Z,22.50
2018-12-26T00:49:48.676Z,21.03
2018-12-26T00:52:17.812Z,23.73
2018-12-26T00:54:46.961Z,24.67
2018-12-26T00:57:16.094Z,25.03
2018-12-26T00:59:45.264Z,22.67
2018-12-26T01:02:14.411Z,24.23
2018-12-26T01:04:43.580Z,23.40
2018-12-26T01:07:12.754Z,25.13
2018-12-26T01:09:41.927Z,22.67
2018-12-26T01:12:11.077Z,22.03
2018-12-26T01:14:40.258Z,22.20
2018-12-26T01:17:09.402Z,23.03
2018-12-26T01:19:38.571Z,22.77
2018-12-26T01:22:07.801Z,23.50
2018-12-26T01:24:37.006Z,25.87
2018-12-26T01:27:06.155Z,23.60
2018-12-26T01:29:35.334Z,27.70
2018-12-26T01:32:04.476Z,25.00
2018-12-26T01:34:33.676Z,25.93
2018-12-26T01:37:02.829Z,26.67
2018-12-26T01:39:32.007Z,25.30
2018-12-26T01:42:01.161Z,25.57
2018-12-26T01:44:30.353Z,24.70
2018-12-26T01:46:59.607Z,25.63
2018-12-26T01:49:28.759Z,25.87
2018-12-26T01:51:57.936Z,27.20
2018-12-26T01:54:27.129Z,25.53
2018-12-26T01:56:56.283Z,26.00
2018-12-26T01:59:25.515Z,27.83
2018-12-26T02:01:54.676Z,26.90
2018-12-26T02:04:23.831Z,24.13
2018-12-26T02:06:53.021Z,30.17
2018-12-26T02:09:22.153Z,27.17
2018-12-26T02:11:51.312Z,30.43
2018-12-26T02:14:20.539Z,27.93
2018-12-26T02:16:49.677Z,26.03
2018-12-26T02:19:18.907Z,25.77
2018-12-26T02:21:48.134Z,27.63
2018-12-26T02:24:17.244Z,28.37
2018-12-26T02:26:46.435Z,26.90
2018-12-26T02:29:15.554Z,30.07
2018-12-26T02:31:44.706Z,28.17
2018-12-26T02:34:13.836Z,30.23
2018-12-26T02:36:43.103Z,27.97
2018-12-26T02:39:12.288Z,28.10
2018-12-26T02:41:41.470Z,30.67
2018-12-26T02:44:10.702Z,27.70
2018-12-26T02:46:39.927Z,29.47
2018-12-26T02:49:09.115Z,26.57
2018-12-26T02:51:38.247Z,27.83
2018-12-26T02:54:07.421Z,28.70
2018-12-26T02:56:46.213Z,32.53
2018-12-26T02:59:07.449Z,28.83
2018-12-26T03:01:36.599Z,27.13
2018-12-26T03:04:05.759Z,28.50
2018-12-26T03:06:34.879Z,29.60
2018-12-26T03:09:04.986Z,28.63
2018-12-26T03:11:34.209Z,30.93
2018-12-26T03:14:03.423Z,28.40
2018-12-26T03:16:32.609Z,29.63
2018-12-26T03:19:01.729Z,29.83
2018-12-26T03:21:30.865Z,29.37
2018-12-26T03:24:00.065Z,32.10
2018-12-26T03:26:29.244Z,28.53
2018-12-26T03:28:58.383Z,33.60
2018-12-26T03:31:27.542Z,28.50
2018-12-26T03:33:56.659Z,31.50
2018-12-26T03:36:25.813Z,29.83
2018-12-26T03:38:55.047Z,33.03
2018-12-26T03:41:24.198Z,30.93
2018-12-26T03:43:53.476Z,31.63
2018-12-26T03:46:22.721Z,32.50
2018-12-26T03:48:54.985Z,31.33
2018-12-26T03:51:24.205Z,28.30
2018-12-26T03:53:53.426Z,31.30
2018-12-26T03:56:22.611Z,32.37
2018-12-26T03:58:51.915Z,32.00
2018-12-26T04:01:21.184Z,28.47
2018-12-26T04:03:50.346Z,29.27
2018-12-26T04:06:19.478Z,30.90
2018-12-26T04:08:48.683Z,31.80
2018-12-26T04:11:17.894Z,33.67
2018-12-26T04:13:47.067Z,30.80
2018-12-26T04:16:16.237Z,32.30
2018-12-26T04:18:45.387Z,32.43
2018-12-26T04:21:14.589Z,29.63
2018-12-26T04:23:43.765Z,32.63
2018-12-26T04:26:12.887Z,33.07
2018-12-26T04:28:42.055Z,30.87
2018-12-26T04:31:11.220Z,32.33
2018-12-26T04:33:40.453Z,31.63
2018-12-26T04:36:09.681Z,34.87
2018-12-26T04:38:38.929Z,30.97
2018-12-26T04:41:08.151Z,30.73
2018-12-26T04:43:37.319Z,30.97
2018-12-26T04:46:06.471Z,33.37
2018-12-26T04:48:35.711Z,31.83
2018-12-26T04:51:04.882Z,32.87
2018-12-26T04:53:34.035Z,34.70
2018-12-26T04:56:03.280Z,32.97
2018-12-26T04:58:32.421Z,31.37
2018-12-26T05:01:01.585Z,33.13
2018-12-26T05:03:30.736Z,32.97
2018-12-26T05:05:59.890Z,32.97
2018-12-26T05:08:29.141Z,33.77
2018-12-26T05:10:58.297Z,31.73
2018-12-26T05:13:27.442Z,33.10
2018-12-26T05:15:58.473Z,34.00
2018-12-26T05:18:27.641Z,31.77
2018-12-26T05:20:56.829Z,34.87
2018-12-26T05:23:26.045Z,36.63
2018-12-26T05:25:55.175Z,38.27
2018-12-26T05:28:24.364Z,33.63
2018-12-26T05:30:53.661Z,33.50
2018-12-26T05:33:22.846Z,32.97
2018-12-26T05:35:52.097Z,34.23
2018-12-26T05:38:22.061Z,34.63
2018-12-26T05:40:51.540Z,36.60
2018-12-26T05:43:20.776Z,35.57
2018-12-26T05:45:49.901Z,34.50
2018-12-26T05:48:19.069Z,32.80
2018-12-26T05:50:48.208Z,37.03
2018-12-26T05:53:17.335Z,34.20
2018-12-26T05:55:46.493Z,35.17
2018-12-26T05:58:15.621Z,31.27
2018-12-26T06:00:44.785Z,35.57
2018-12-26T06:03:13.962Z,34.00
2018-12-26T06:05:43.079Z,37.87
2018-12-26T06:08:12.326Z,36.20
2018-12-26T06:10:41.481Z,36.50
2018-12-26T06:13:10.597Z,34.40
2018-12-26T06:15:39.776Z,33.47
2018-12-26T06:18:08.932Z,36.00
2018-12-26T06:20:38.076Z,33.00
2018-12-26T06:23:07.221Z,35.50
2018-12-26T06:25:36.364Z,32.97
2018-12-26T06:28:05.522Z,31.77
2018-12-26T06:30:34.682Z,32.17
2018-12-26T06:33:03.807Z,32.20
2018-12-26T06:35:33.158Z,34.27
2018-12-26T06:38:02.324Z,35.13
2018-12-26T06:40:31.673Z,32.73
2018-12-26T06:43:00.891Z,32.33
2018-12-26T06:45:30.018Z,33.67
2018-12-26T06:47:59.159Z,31.90
2018-12-26T06:50:28.324Z,31.57
2018-12-26T06:52:57.537Z,33.77
2018-12-26T06:55:26.778Z,37.73
2018-12-26T06:58:00.117Z,35.20
2018-12-26T07:00:26.847Z,34.13
2018-12-26T07:02:56.083Z,35.47
2018-12-26T07:05:25.295Z,37.77
2018-12-26T07:07:54.504Z,35.00
2018-12-26T07:10:23.720Z,33.57
2018-12-26T07:12:52.881Z,35.77
2018-12-26T07:15:22.011Z,33.33
2018-12-26T07:17:51.215Z,33.03
2018-12-26T07:20:20.387Z,33.73
2018-12-26T07:22:49.539Z,34.77
2018-12-26T07:25:18.695Z,38.23
2018-12-26T07:27:47.871Z,35.43
2018-12-26T07:30:17.061Z,33.37
2018-12-26T07:32:46.306Z,34.13
2018-12-26T07:35:15.452Z,33.53
2018-12-26T07:37:44.712Z,34.90
2018-12-26T07:40:13.911Z,35.43
2018-12-26T07:42:43.182Z,32.47
2018-12-26T07:45:12.333Z,35.97
2018-12-26T07:47:41.526Z,33.70
2018-12-26T07:50:10.684Z,35.70
2018-12-26T07:52:39.906Z,35.53
2018-12-26T07:55:09.052Z,33.53
2018-12-26T07:57:38.332Z,35.90
2018-12-26T08:00:08.424Z,36.67
2018-12-26T08:02:37.572Z,35.37
2018-12-26T08:05:06.737Z,36.17
2018-12-26T08:07:35.973Z,35.37
2018-12-26T08:10:05.651Z,39.57
2018-12-26T08:12:34.816Z,33.10
2018-12-26T08:15:10.503Z,32.60
2018-12-26T08:17:34.928Z,38.60
2018-12-26T08:20:04.141Z,38.63
2018-12-26T08:22:33.349Z,37.73
2018-12-26T08:25:02.533Z,37.23
2018-12-26T08:27:31.759Z,35.50
2018-12-26T08:30:00.978Z,40.00
2018-12-26T08:32:30.200Z,32.10
2018-12-26T08:34:59.365Z,36.90
2018-12-26T08:37:28.527Z,33.83
2018-12-26T08:39:57.777Z,34.40
2018-12-26T08:42:26.928Z,34.43
2018-12-26T08:44:56.144Z,36.10
2018-12-26T08:47:25.336Z,36.40
2018-12-26T08:49:54.504Z,42.67
2018-12-26T08:52:23.653Z,37.93
2018-12-26T08:54:52.937Z,37.63
2018-12-26T08:57:22.078Z,38.90
2018-12-26T08:59:51.261Z,40.77
2018-12-26T09:02:20.502Z,39.77
2018-12-26T09:04:49.688Z,37.53
2018-12-26T09:07:18.830Z,40.40
2018-12-26T09:09:47.987Z,37.63
2018-12-26T09:12:17.358Z,38.83
2018-12-26T09:14:46.561Z,34.53
2018-12-26T09:17:15.711Z,38.17
2018-12-26T09:19:44.900Z,36.17
2018-12-26T09:22:14.060Z,37.43
2018-12-26T09:24:43.226Z,38.33
2018-12-26T09:27:13.596Z,33.80
2018-12-26T09:29:42.723Z,37.60
2018-12-26T09:32:11.890Z,38.73
2018-12-26T09:34:41.063Z,36.93
2018-12-26T09:37:10.284Z,38.47
2018-12-26T09:39:39.408Z,39.50
2018-12-26T09:42:08.606Z,38.67
2018-12-26T09:44:37.821Z,35.63
2018-12-26T09:47:06.991Z,40.40
2018-12-26T09:49:36.113Z,37.93
2018-12-26T09:52:05.231Z,38.50
2018-12-26T09:54:34.399Z,34.70
2018-12-26T09:57:03.606Z,35.20
2018-12-26T09:59:32.890Z,38.60
2018-12-26T10:02:02.047Z,36.87
2018-12-26T10:04:31.341Z,38.30
2018-12-26T10:07:00.512Z,39.80
2018-12-26T10:09:29.750Z,36.67
2018-12-26T10:11:58.914Z,41.80
2018-12-26T10:14:28.108Z,38.90
2018-12-26T10:16:57.330Z,39.20
2018-12-26T10:19:26.464Z,38.63
2018-12-26T10:21:55.666Z,38.80
2018-12-26T10:24:24.803Z,39.50
2018-12-26T10:26:54.083Z,38.03
2018-12-26T10:29:23.368Z,42.20
2018-12-26T10:31:52.690Z,38.33
2018-12-26T10:34:21.818Z,38.53
2018-12-26T10:36:51.008Z,38.73
2018-12-26T10:39:20.213Z,42.47
2018-12-26T10:41:49.407Z,38.60
2018-12-26T10:44:18.645Z,41.30
2018-12-26T10:46:47.813Z,40.60
2018-12-26T10:49:17.031Z,36.93
2018-12-26T10:51:46.275Z,40.43
2018-12-26T10:54:15.469Z,41.93
2018-12-26T10:56:44.656Z,42.60
2018-12-26T10:59:13.818Z,41.30
2018-12-26T11:01:43.055Z,41.00
2018-12-26T11:04:12.198Z,40.73
2018-12-26T11:06:41.455Z,39.83
2018-12-26T11:09:10.617Z,41.07
2018-12-26T11:11:39.808Z,42.53
2018-12-26T11:14:09.063Z,36.73
2018-12-26T11:16:38.271Z,34.33
2018-12-26T11:19:07.518Z,37.10
2018-12-26T11:21:36.754Z,32.57
2018-12-26T11:24:05.931Z,32.33
2018-12-26T11:26:35.101Z,32.37
2018-12-26T11:29:04.333Z,29.53
2018-12-26T11:31:33.586Z,33.23
2018-12-26T11:34:02.728Z,31.87
2018-12-26T11:36:31.885Z,32.07
2018-12-26T11:39:01.011Z,29.63
2018-12-26T11:41:30.197Z,31.67
2018-12-26T11:43:59.349Z,33.03
2018-12-26T11:46:28.496Z,32.77
2018-12-26T11:48:57.662Z,31.07
2018-12-26T11:51:26.822Z,33.43
2018-12-26T11:53:56.013Z,31.00
2018-12-26T11:56:25.201Z,31.40
2018-12-26T11:58:54.530Z,29.30
2018-12-26T12:01:23.739Z,30.17
2018-12-26T12:03:53.034Z,30.97
2018-12-26T12:06:22.234Z,32.17
2018-12-26T12:08:51.636Z,34.30
2018-12-26T12:11:20.781Z,29.17
2018-12-26T12:13:50.016Z,31.03
2018-12-26T12:16:19.206Z,30.57
2018-12-26T12:18:48.447Z,30.63
2018-12-26T12:21:17.720Z,29.93
2018-12-26T12:23:46.860Z,29.57
2018-12-26T12:26:16.054Z,29.93
2018-12-26T12:28:45.255Z,33.20
2018-12-26T12:31:14.421Z,31.03
2018-12-26T12:33:43.616Z,35.00
2018-12-26T12:36:13.095Z,33.50
2018-12-26T12:38:42.440Z,34.10
2018-12-26T12:41:12.590Z,37.53
2018-12-26T12:43:41.787Z,36.97
2018-12-26T12:46:10.923Z,33.87
2018-12-26T12:48:40.124Z,33.13
2018-12-26T12:51:09.294Z,37.97
2018-12-26T12:53:38.489Z,33.87
2018-12-26T12:56:11.714Z,33.77
2018-12-26T12:58:38.564Z,35.33
2018-12-26T13:01:07.727Z,37.77
2018-12-26T13:03:36.964Z,37.87
2018-12-26T13:06:06.153Z,36.43
2018-12-26T13:08:35.348Z,36.83
2018-12-26T13:11:04.531Z,35.77
2018-12-26T13:13:33.727Z,39.83
2018-12-26T13:16:02.881Z,36.10
2018-12-26T13:18:32.096Z,37.23
2018-12-26T13:21:01.333Z,38.53
2018-12-26T13:23:30.499Z,41.73
2018-12-26T13:25:59.771Z,40.90
2018-12-26T13:28:29.008Z,35.07
2018-12-26T13:31:05.194Z,40.27
2018-12-26T13:33:30.806Z,44.80
2018-12-26T13:35:59.964Z,39.70
2018-12-26T13:38:29.176Z,41.47
2018-12-26T13:40:58.387Z,44.43
2018-12-26T13:43:27.555Z,42.07
2018-12-26T13:45:56.726Z,46.67
2018-12-26T13:48:25.964Z,40.23
2018-12-26T13:50:55.246Z,41.13
2018-12-26T13:53:24.436Z,40.20
2018-12-26T13:55:53.777Z,44.60
2018-12-26T13:58:22.961Z,45.93
2018-12-26T14:00:52.173Z,41.50
2018-12-26T14:03:21.504Z,44.73
2018-12-26T14:05:50.705Z,43.33
2018-12-26T14:08:19.905Z,45.03
2018-12-26T14:10:49.111Z,43.90
2018-12-26T14:13:18.292Z,43.33
2018-12-26T14:15:47.510Z,45.73
2018-12-26T14:18:16.762Z,44.47
2018-12-26T14:20:45.953Z,46.77
2018-12-26T14:23:15.126Z,49.40
2018-12-26T14:25:44.280Z,45.53
2018-12-26T14:28:13.443Z,47.83
2018-12-26T14:30:42.639Z,47.90
2018-12-26T14:33:11.889Z,52.07
2018-12-26T14:35:40.509Z,46.27
2018-12-26T14:38:09.711Z,49.33
2018-12-26T14:40:38.880Z,57.77
2018-12-26T14:43:08.045Z,56.00
2018-12-26T14:45:37.177Z,47.30
2018-12-26T14:48:06.331Z,52.57
2018-12-26T14:50:35.581Z,55.93
2018-12-26T14:53:04.704Z,58.90
2018-12-26T14:55:33.874Z,56.73
2018-12-26T14:58:03.020Z,55.23
2018-12-26T15:00:32.221Z,54.43
2018-12-26T15:03:01.449Z,53.20
2018-12-26T15:05:30.635Z,55.13
2018-12-26T15:07:59.836Z,55.97
2018-12-26T15:10:29.013Z,53.20
2018-12-26T15:12:58.212Z,57.40
2018-12-26T15:15:27.413Z,56.27
2018-12-26T15:17:56.644Z,56.53
2018-12-26T15:20:25.820Z,57.57
2018-12-26T15:22:55.046Z,54.47
2018-12-26T15:25:24.234Z,51.67
2018-12-26T15:27:53.486Z,51.37
2018-12-26T15:30:28.494Z,51.57
2018-12-26T15:32:53.761Z,53.77
2018-12-26T15:35:22.899Z,50.17
2018-12-26T15:37:52.474Z,51.83
2018-12-26T15:40:21.653Z,51.40
2018-12-26T15:42:50.888Z,46.00
2018-12-26T15:45:20.101Z,55.37
2018-12-26T15:47:49.294Z,52.23
2018-12-26T15:50:18.536Z,44.07
2018-12-26T15:52:47.730Z,49.10
2018-12-26T15:55:16.910Z,46.03
2018-12-26T15:57:46.065Z,42.00
2018-12-26T16:00:15.255Z,46.00
2018-12-26T16:02:44.408Z,42.43
2018-12-26T16:05:13.548Z,46.50
2018-12-26T16:07:42.728Z,42.90
2018-12-26T16:10:11.886Z,43.70
2018-12-26T16:12:41.004Z,48.50
2018-12-26T16:15:10.750Z,41.73
2018-12-26T16:17:39.899Z,42.93
2018-12-26T16:20:10.473Z,40.10
2018-12-26T16:22:39.794Z,38.50
2018-12-26T16:25:09.226Z,35.17
2018-12-26T16:27:38.594Z,43.70
2018-12-26T16:30:08.790Z,35.47
2018-12-26T16:32:37.914Z,36.00
2018-12-26T16:35:08.520Z,37.43
2018-12-26T16:37:37.640Z,36.30
2018-12-26T16:40:07.907Z,36.07
2018-12-26T16:42:37.140Z,36.07
2018-12-26T16:45:06.599Z,32.00
2018-12-26T16:47:35.863Z,31.07
2018-12-26T16:50:05.507Z,31.10
2018-12-26T16:52:34.683Z,30.50
2018-12-26T16:55:03.927Z,32.17
2018-12-26T16:57:33.065Z,35.10
2018-12-26T17:00:02.206Z,29.43
2018-12-26T17:02:31.376Z,31.93
2018-12-26T17:05:00.514Z,35.70
2018-12-26T17:07:29.704Z,30.13
2018-12-26T17:09:58.876Z,33.33
2018-12-26T17:12:28.023Z,33.13
2018-12-26T17:14:57.292Z,30.17
2018-12-26T17:17:26.567Z,32.47
2018-12-26T17:19:55.819Z,30.23
2018-12-26T17:22:24.972Z,31.83
2018-12-26T17:24:54.306Z,27.00
2018-12-26T17:27:23.444Z,28.93
2018-12-26T17:29:54.392Z,27.73
2018-12-26T17:32:23.652Z,29.43
2018-12-26T17:34:52.943Z,30.20
2018-12-26T17:37:22.121Z,27.17
2018-12-26T17:39:51.348Z,28.30
2018-12-26T17:42:20.573Z,28.13
2018-12-26T17:44:49.731Z,28.30
2018-12-26T17:47:18.919Z,27.97
2018-12-26T17:49:48.070Z,30.13
2018-12-26T17:52:17.261Z,24.03
2018-12-26T17:54:56.212Z,24.97
2018-12-26T17:57:32.059Z,27.60
2018-12-26T18:00:57.517Z,25.50
2018-12-26T18:03:26.652Z,26.80
2018-12-26T18:05:55.878Z,28.77
2018-12-26T18:08:25.061Z,28.60
2018-12-26T18:10:54.284Z,30.13
2018-12-26T18:13:23.457Z,29.37
2018-12-26T18:15:52.698Z,29.20
2018-12-26T18:18:21.852Z,29.73
2018-12-26T18:20:51.002Z,27.10
2018-12-26T18:23:20.264Z,29.40
2018-12-26T18:25:49.515Z,31.17
2018-12-26T18:28:18.772Z,26.67
2018-12-26T18:30:47.943Z,27.97
2018-12-26T18:33:17.102Z,24.97
2018-12-26T18:35:46.237Z,28.33
2018-12-26T18:38:15.756Z,26.17
2018-12-26T18:40:44.930Z,28.80
2018-12-26T18:43:14.055Z,29.67
2018-12-26T18:45:43.241Z,26.13
2018-12-26T18:48:12.415Z,26.27
2018-12-26T18:50:41.543Z,25.30
2018-12-26T18:53:10.720Z,26.40
2018-12-26T18:55:39.895Z,25.43
2018-12-26T18:58:09.116Z,22.47
2018-12-26T19:00:38.736Z,26.77
2018-12-26T19:03:07.880Z,24.80
2018-12-26T19:05:37.035Z,24.80
2018-12-26T19:08:06.213Z,25.23
2018-12-26T19:10:35.395Z,23.33
2018-12-26T19:13:04.571Z,24.70
2018-12-26T19:15:33.757Z,23.73
2018-12-26T19:18:03.001Z,25.53
2018-12-26T19:20:32.398Z,26.33
2018-12-26T19:23:01.593Z,25.17
2018-12-26T19:25:30.759Z,24.70
2018-12-26T19:27:59.949Z,23.80
2018-12-26T19:30:29.289Z,24.47
2018-12-26T19:32:58.464Z,23.67
2018-12-26T19:35:27.657Z,25.17
2018-12-26T19:37:56.863Z,23.57
2018-12-26T19:40:26.015Z,23.70
2018-12-26T19:42:55.307Z,24.37
2018-12-26T19:45:24.429Z,21.10
2018-12-26T19:47:53.699Z,21.30
2018-12-26T19:50:22.868Z,24.33
2018-12-26T19:52:52.104Z,25.33
2018-12-26T19:55:21.285Z,25.63
2018-12-26T19:57:50.436Z,23.10
2018-12-26T20:00:19.602Z,23.47
2018-12-26T20:02:48.758Z,21.40
2018-12-26T20:05:17.865Z,23.83
2018-12-26T20:07:47.033Z,21.23
2018-12-26T20:10:16.304Z,25.03
2018-12-26T20:12:45.484Z,23.53
2018-12-26T20:15:14.638Z,21.70
2018-12-26T20:17:43.852Z,20.30
2018-12-26T20:20:13.044Z,23.53
2018-12-26T20:22:42.220Z,22.57
2018-12-26T20:25:11.393Z,23.97
2018-12-26T20:27:40.599Z,22.57
2018-12-26T20:30:10.510Z,22.17
2018-12-26T20:32:39.857Z,18.43
2018-12-26T20:35:09.049Z,19.57
2018-12-26T20:37:38.241Z,22.03
2018-12-26T20:40:08.836Z,23.47
2018-12-26T20:42:37.960Z,21.20
2018-12-26T20:45:08.381Z,25.00
2018-12-26T20:47:37.567Z,23.87
2018-12-26T20:50:08.197Z,23.87
2018-12-26T20:52:37.341Z,21.43
2018-12-26T20:55:06.665Z,24.77
2018-12-26T20:57:35.864Z,20.97
2018-12-26T21:00:06.315Z,21.87
2018-12-26T21:02:35.505Z,22.13
2018-12-26T21:05:04.996Z,21.63
2018-12-26T21:07:34.170Z,22.50
2018-12-26T21:10:03.346Z,24.53
2018-12-26T21:12:32.516Z,20.83
2018-12-26T21:15:01.669Z,24.37
2018-12-26T21:17:30.910Z,21.50
2018-12-26T21:20:00.182Z,20.20
2018-12-26T21:22:29.441Z,20.93
2018-12-26T21:24:58.608Z,23.10
2018-12-26T21:27:27.799Z,24.77
2018-12-26T21:29:57.020Z,24.03
2018-12-26T21:32:26.274Z,22.47
2018-12-26T21:34:55.472Z,20.23
2018-12-26T21:37:24.713Z,18.23
2018-12-26T21:39:53.947Z,23.83
2018-12-26T21:42:23.271Z,22.80
2018-12-26T21:44:52.500Z,19.70
2018-12-26T21:47:21.700Z,19.80
2018-12-26T21:49:50.983Z,23.93
2018-12-26T21:52:20.177Z,20.80
2018-12-26T21:54:49.326Z,22.00
2018-12-26T21:57:18.529Z,22.37
2018-12-26T21:59:47.851Z,20.53
2018-12-26T22:02:22.487Z,23.27
2018-12-26T22:04:48.073Z,24.73
2018-12-26T22:07:17.236Z,23.93
2018-12-26T22:09:46.449Z,21.13
2018-12-26T22:12:15.816Z,22.50
2018-12-26T22:14:45.054Z,20.93
2018-12-26T22:17:14.210Z,21.13
2018-12-26T22:19:43.383Z,20.90
2018-12-26T22:22:12.581Z,22.03
2018-12-26T22:24:42.445Z,18.47
2018-12-26T22:27:11.650Z,20.27
2018-12-26T22:29:40.860Z,18.83
2018-12-26T22:32:10.060Z,19.37
2018-12-26T22:34:39.343Z,21.40
2018-12-26T22:37:08.481Z,21.83
2018-12-26T22:39:37.709Z,21.13
2018-12-26T22:42:06.892Z,22.83
2018-12-26T22:44:36.121Z,20.47
2018-12-26T22:47:05.359Z,21.83
2018-12-26T22:49:34.537Z,22.27
2018-12-26T22:52:03.718Z,20.63
2018-12-26T22:54:32.828Z,22.73
2018-12-26T22:57:02.012Z,18.40
2018-12-26T22:59:31.385Z,19.33
2018-12-26T23:02:00.563Z,19.57
2018-12-26T23:04:29.820Z,20.40
2018-12-26T23:06:59.016Z,22.47
2018-12-26T23:09:28.173Z,22.97
2018-12-26T23:11:57.391Z,20.20
2018-12-26T23:14:26.597Z,23.10
2018-12-26T23:16:55.752Z,19.50
2018-12-26T23:19:24.949Z,22.40
2018-12-26T23:21:54.189Z,23.00
2018-12-26T23:24:23.373Z,19.17
2018-12-26T23:26:52.568Z,24.30
2018-12-26T23:29:21.736Z,22.37
2018-12-26T23:31:50.996Z,23.77
2018-12-26T23:34:20.205Z,21.30
2018-12-26T23:36:49.330Z,21.00
2018-12-26T23:39:18.472Z,22.50
2018-12-26T23:41:47.640Z,20.80
2018-12-26T23:44:16.835Z,21.70
2018-12-26T23:46:45.984Z,21.43
2018-12-26T23:49:15.158Z,20.27
2018-12-26T23:51:44.323Z,21.73
2018-12-26T23:54:13.442Z,24.30
2018-12-26T23:56:42.589Z,20.03
2018-12-26T23:59:11.826Z,22.93
